Leslie, WV (25972)

4:03 PM EDT on July 30, 2015 (GMT -0400)
Wren Lane | | Change Station
CLOSE
Current Station
Personal Weather Station
Location: Rainelle, WV
Elevation: 2405 ft
Nearby Weather Stations

Elev 2405 ft 38.04 °N, 80.92 °W | Updated 8 minutes ago

Mostly Cloudy
Mostly Cloudy
80.4 °F
Feels Like 88 °F
N
0.0
Wind Variable Wind from NW

Today
High -- | Low -- °F
--% Chance of Precip.
Yesterday
High -- | Low -- °F
Precip. -- in
6:24 AM 8:34 PM
Waxing Gibbous, 99% visible
Pressure 30.03 in
Visibility 10.0 miles
Clouds Scattered Clouds 3700 ft
Scattered Clouds 4700 ft
Heat Index 88 °F
Dew Point 80 °F
Humidity 98%
Rainfall 2.44 in
Snow Depth Not available.
UV 7 out of 12
Pollen 5.20 out of 12
Air Quality Not available.
Flu Activity Not available.
METAR KLWB 301955Z AUTO 28008KT 10SM SCT037 SCT047 30/18 A3003 RMK AO2 T02960179

More Conditions Fewer Conditions

Pressure 30.03 in
Visibility 10.0 miles
Clouds Scattered Clouds 3700 ft
Scattered Clouds 4700 ft
Heat Index 88 °F
Dew Point 80 °F
Humidity 98%
Rainfall 2.44 in
Snow Depth Not available.
UV 7 out of 12
Pollen 5.20 out of 12
Air Quality Not available.
Flu Activity Not available.
METAR KLWB 301955Z AUTO 28008KT 10SM SCT037 SCT047 30/18 A3003 RMK AO2 T02960179

More Conditions Fewer Conditions

10-Day Weather Forecast

×

Almanac

Astronomy

Jul. 30, 2015 Rise Set
Actual Time
Civil Twilight
Nautical Twilight
Astronomical Twilight
Moon
Length of Visible Light
Length of Day
Tomorrow will be .
, % of the Moon is Illuminated

Today's Extremes

State Highs State Lows

Community

WunderPhotos

Upload Photos

1,842,491 photos uploaded!

WunderBlogs® & News

Nearby

Air Quality

  Air Quality AQ Index Pollutant
Not available.

Snow Depth

Station Depth Elevation

Earthquake Activity

City Distance Mag. Time & Date
Minimum magnitude displayed is 2.5.

Coastal Water Temperatures

Place Temperature

Stations

Nearby Weather Stations

Station Location Temp. Windchill Dew Point Humidity Wind Precip. Elev Updated Type